Time;durP1;ratioP1;P1;durP2;ratioP2;P2;SDS_P1;SDS_P2;PMS_P1;PMS_P2;Temp;Humidity;BMP_temperature;BMP_pressure;BME280_temperature;BME280_humidity;BME280_pressure;Samples;Min_cycle;Max_cycle;Signal;HPM_P1;HPM_P2
2023/05/11 00:00:06;;;;;;;6.45;3.60;;;15.50;88.50;;;;;;4590980;19;20011;-26
2023/05/11 00:01:59;;;;;;;5.22;3.35;;;15.40;88.30;;;;;;4590070;19;20468;-30
2023/05/11 00:03:32;;;;;;;6.53;3.50;;;15.50;88.30;;;;;;4591400;19;20014;-25
2023/05/11 00:05:03;;;;;;;5.60;3.95;;;15.50;88.70;;;;;;4590420;19;20100;-25
2023/05/11 00:06:35;;;;;;;5.25;3.72;;;15.50;89.40;;;;;;4590169;19;20366;-28
2023/05/11 00:08:08;;;;;;;6.25;3.58;;;15.50;88.90;;;;;;4590895;19;20074;-26
2023/05/11 00:09:40;;;;;;;7.00;3.28;;;15.50;88.70;;;;;;4590422;19;20010;-26
2023/05/11 00:11:11;;;;;;;7.25;3.13;;;15.50;88.50;;;;;;4590440;19;20015;-25
2023/05/11 00:12:44;;;;;;;6.70;3.53;;;15.40;88.60;;;;;;4590934;19;20486;-25
2023/05/11 00:14:15;;;;;;;4.55;3.00;;;15.40;89.10;;;;;;4590863;19;20010;-26
2023/05/11 00:15:47;;;;;;;5.82;3.78;;;15.40;88.60;;;;;;4590379;19;20034;-26
2023/05/11 00:17:19;;;;;;;4.90;3.40;;;15.40;88.70;;;;;;4591386;19;20003;-25
2023/05/11 00:18:52;;;;;;;5.80;3.85;;;15.40;88.60;;;;;;4591004;19;20010;-31
2023/05/11 00:20:24;;;;;;;5.97;3.80;;;15.40;88.70;;;;;;4589876;19;20476;-26
2023/05/11 00:22:00;;;;;;;6.50;3.50;;;15.40;88.50;;;;;;4590283;19;20006;-24
2023/05/11 00:23:32;;;;;;;5.47;3.33;;;15.40;88.80;;;;;;4590004;19;20007;-26
2023/05/11 00:25:05;;;;;;;4.78;3.22;;;15.40;88.80;;;;;;4589772;19;20010;-30
2023/05/11 00:26:38;;;;;;;6.45;3.08;;;15.40;88.80;;;;;;4590418;19;20011;-26
2023/05/11 00:28:11;;;;;;;5.63;3.38;;;15.40;89.00;;;;;;4591054;19;20033;-28
2023/05/11 00:29:42;;;;;;;4.45;3.17;;;15.40;88.40;;;;;;4591083;19;20015;-25
2023/05/11 00:31:17;;;;;;;5.53;3.50;;;15.40;88.70;;;;;;4589219;19;20011;-25
2023/05/11 00:32:52;;;;;;;7.57;4.03;;;15.40;88.30;;;;;;4590570;19;20015;-29
2023/05/11 00:34:25;;;;;;;4.85;3.00;;;15.40;88.40;;;;;;4589838;19;20006;-25
2023/05/11 00:35:57;;;;;;;4.88;3.60;;;15.40;88.80;;;;;;4590820;19;20006;-26
2023/05/11 00:37:29;;;;;;;7.93;3.92;;;15.40;89.40;;;;;;4590399;19;20010;-28
2023/05/11 00:39:00;;;;;;;5.05;3.22;;;15.40;89.10;;;;;;4590591;19;20039;-26
2023/05/11 00:40:32;;;;;;;8.40;3.75;;;15.40;89.00;;;;;;4591088;19;20501;-25
2023/05/11 00:42:04;;;;;;;6.72;3.80;;;15.40;89.00;;;;;;4589456;19;20010;-31
2023/05/11 00:43:39;;;;;;;5.75;3.60;;;15.40;88.70;;;;;;4590065;19;20036;-24
2023/05/11 00:45:10;;;;;;;5.00;3.08;;;15.40;88.90;;;;;;4589688;19;20361;-25
2023/05/11 00:46:42;;;;;;;6.40;3.47;;;15.40;89.10;;;;;;4590777;19;20074;-27
2023/05/11 00:48:15;;;;;;;6.95;3.55;;;15.40;88.50;;;;;;4590798;19;19998;-25
2023/05/11 00:49:49;;;;;;;7.28;3.83;;;15.40;89.00;;;;;;4590473;19;20038;-26
2023/05/11 00:51:21;;;;;;;5.63;3.35;;;15.40;89.10;;;;;;4589075;19;20047;-28
2023/05/11 00:52:54;;;;;;;5.95;3.53;;;15.40;89.10;;;;;;4590203;19;20010;-26
2023/05/11 00:54:26;;;;;;;7.03;3.97;;;15.40;88.70;;;;;;4590202;19;20054;-26
2023/05/11 00:55:58;;;;;;;6.65;3.50;;;15.30;89.10;;;;;;4590295;19;20472;-28
2023/05/11 00:57:35;;;;;;;5.72;3.83;;;15.40;88.90;;;;;;4590174;19;20015;-28
2023/05/11 00:59:09;;;;;;;6.20;3.70;;;15.30;89.20;;;;;;4589368;19;20385;-25
2023/05/11 01:00:41;;;;;;;8.13;3.85;;;15.30;88.80;;;;;;4589811;19;20492;-27
2023/05/11 01:02:16;;;;;;;7.65;3.42;;;15.30;89.00;;;;;;4590011;19;20011;-26
2023/05/11 01:03:49;;;;;;;5.63;3.60;;;15.30;88.90;;;;;;4590575;19;20002;-26
2023/05/11 01:05:19;;;;;;;9.60;4.30;;;15.30;89.50;;;;;;4591102;19;20089;-23
2023/05/11 01:07:03;;;;;;;5.88;3.65;;;15.30;89.40;;;;;;4590036;19;20010;-32
2023/05/11 01:08:45;;;;;;;6.78;3.45;;;15.30;89.70;;;;;;4590281;19;20031;-26
2023/05/11 01:10:29;;;;;;;6.40;3.60;;;15.30;89.50;;;;;;4588773;19;20014;-28
2023/05/11 01:12:41;;;;;;;8.57;3.88;;;15.30;89.40;;;;;;4588546;19;19994;-29
2023/05/11 01:14:19;;;;;;;4.65;3.30;;;15.30;89.30;;;;;;4587306;19;20014;-26
2023/05/11 01:15:55;;;;;;;5.95;3.50;;;15.30;89.70;;;;;;4586693;19;20014;-29
2023/05/11 01:17:38;;;;;;;6.13;3.55;;;15.30;89.80;;;;;;4587661;19;20021;-29
2023/05/11 01:19:30;;;;;;;8.50;4.03;;;15.30;89.70;;;;;;4587592;19;20018;-25
2023/05/11 01:21:02;;;;;;;4.95;3.40;;;15.30;89.80;;;;;;4587346;19;20043;-25
2023/05/11 01:23:02;;;;;;;6.65;3.72;;;15.30;90.00;;;;;;4587388;19;20018;-26
2023/05/11 01:25:10;;;;;;;5.55;3.67;;;15.30;89.90;;;;;;4587574;19;20018;-25
2023/05/11 01:27:17;;;;;;;7.80;3.55;;;15.20;89.70;;;;;;4587623;19;20019;-26
2023/05/11 01:29:20;;;;;;;4.93;3.20;;;15.20;89.70;;;;;;4588047;19;20011;-28
2023/05/11 01:30:54;;;;;;;6.40;3.80;;;15.20;90.00;;;;;;4587475;19;20022;-25
2023/05/11 01:32:30;;;;;;;6.18;3.50;;;15.20;90.10;;;;;;4587740;19;20508;-26
2023/05/11 01:34:03;;;;;;;7.18;4.22;;;15.20;89.90;;;;;;4591577;19;20047;-25
2023/05/11 01:35:38;;;;;;;5.40;3.20;;;15.20;89.70;;;;;;4592085;19;20010;-29
2023/05/11 01:37:15;;;;;;;4.70;3.50;;;15.20;89.70;;;;;;4592319;19;20513;-25
2023/05/11 01:38:46;;;;;;;5.65;3.70;;;15.20;90.10;;;;;;4591894;19;20469;-25
2023/05/11 01:40:21;;;;;;;5.38;3.72;;;15.20;89.60;;;;;;4592117;19;20002;-25
2023/05/11 01:41:53;;;;;;;9.13;4.13;;;15.20;89.90;;;;;;4591758;19;20022;-28
2023/05/11 01:43:25;;;;;;;6.43;3.60;;;15.20;89.70;;;;;;4592067;19;20444;-27
2023/05/11 01:44:57;;;;;;;7.97;3.80;;;15.20;89.60;;;;;;4592212;19;20473;-25
2023/05/11 01:46:32;;;;;;;6.00;3.80;;;15.20;90.00;;;;;;4591957;19;20007;-27
2023/05/11 01:48:03;;;;;;;;;;;15.20;90.00;;;;;;4592876;19;20010;-28
2023/05/11 01:49:37;;;;;;;7.95;3.65;;;15.20;89.90;;;;;;4591526;19;20005;-25
2023/05/11 01:51:08;;;;;;;6.18;3.88;;;15.20;89.90;;;;;;4591359;19;20350;-25
2023/05/11 01:52:40;;;;;;;8.52;3.65;;;15.20;89.70;;;;;;4591685;19;20025;-27
2023/05/11 01:54:13;;;;;;;5.30;3.63;;;15.20;90.10;;;;;;4591827;19;20036;-28
2023/05/11 01:55:46;;;;;;;7.85;3.40;;;15.20;90.00;;;;;;4591913;19;19999;-25
2023/05/11 01:57:17;;;;;;;6.35;4.28;;;15.20;89.70;;;;;;4592198;19;20021;-25
2023/05/11 01:58:48;;;;;;;5.30;3.38;;;15.20;89.80;;;;;;4591792;19;20082;-25
2023/05/11 02:00:22;;;;;;;6.57;4.00;;;15.20;90.10;;;;;;4591776;19;20342;-26
2023/05/11 02:01:54;;;;;;;6.45;4.15;;;15.20;90.00;;;;;;4591476;19;20030;-26
2023/05/11 02:03:27;;;;;;;6.70;3.67;;;15.20;89.70;;;;;;4592354;19;19998;-31
2023/05/11 02:04:59;;;;;;;6.63;4.47;;;15.20;89.80;;;;;;4591884;19;20006;-27
2023/05/11 02:06:34;;;;;;;6.70;3.95;;;15.20;89.80;;;;;;4592715;19;20472;-25
2023/05/11 02:08:06;;;;;;;7.20;4.20;;;15.20;89.40;;;;;;4593081;19;20002;-29
2023/05/11 02:09:38;;;;;;;6.78;4.18;;;15.20;89.60;;;;;;4592822;19;20010;-25
2023/05/11 02:11:11;;;;;;;6.60;3.63;;;15.20;89.80;;;;;;4592957;19;20014;-28
2023/05/11 02:12:43;;;;;;;8.23;3.75;;;15.20;89.60;;;;;;4592877;19;20021;-26
2023/05/11 02:14:16;;;;;;;5.13;3.30;;;15.10;89.50;;;;;;4591834;19;20014;-26
2023/05/11 02:15:50;;;;;;;5.75;3.70;;;15.10;90.00;;;;;;4590760;19;20061;-30
2023/05/11 02:17:22;;;;;;;5.15;3.70;;;15.10;89.60;;;;;;4592491;19;20070;-30
2023/05/11 02:18:56;;;;;;;5.50;3.80;;;15.20;89.40;;;;;;4593352;19;20015;-31
2023/05/11 02:20:28;;;;;;;6.82;3.60;;;15.10;89.70;;;;;;4591234;19;20018;-29
2023/05/11 02:21:59;;;;;;;5.15;3.55;;;15.10;89.40;;;;;;4591321;19;20006;-25
2023/05/11 02:23:32;;;;;;;5.57;3.55;;;15.10;89.60;;;;;;4591090;19;20217;-28
2023/05/11 02:25:04;;;;;;;5.95;3.17;;;15.10;89.50;;;;;;4591288;19;20519;-25
2023/05/11 02:26:36;;;;;;;4.60;3.22;;;15.10;89.50;;;;;;4591183;19;20042;-25
2023/05/11 02:28:10;;;;;;;6.45;3.83;;;15.10;89.40;;;;;;4590880;19;20018;-28
2023/05/11 02:29:42;;;;;;;6.28;3.70;;;15.10;89.70;;;;;;4590849;19;20373;-25
2023/05/11 02:31:16;;;;;;;5.20;3.78;;;15.10;89.50;;;;;;4590870;19;20022;-25
2023/05/11 02:32:51;;;;;;;5.50;3.47;;;15.10;89.50;;;;;;4591358;19;20010;-26
2023/05/11 02:34:25;;;;;;;6.53;3.90;;;15.10;89.80;;;;;;4590614;19;20422;-25
2023/05/11 02:35:57;;;;;;;5.10;3.63;;;15.10;89.50;;;;;;4590955;19;20015;-25
2023/05/11 02:37:32;;;;;;;6.55;4.32;;;15.10;89.70;;;;;;4591058;19;20041;-28
2023/05/11 02:39:06;;;;;;;5.68;3.92;;;15.10;89.60;;;;;;4590933;19;20021;-29
2023/05/11 02:40:45;;;;;;;6.10;3.65;;;15.10;89.80;;;;;;4590799;19;20007;-27
2023/05/11 02:42:19;;;;;;;5.32;3.50;;;15.10;90.00;;;;;;4591109;19;20051;-26
2023/05/11 02:43:51;;;;;;;6.97;3.50;;;15.10;90.20;;;;;;4589612;19;20006;-29
2023/05/11 02:45:22;;;;;;;6.40;3.97;;;15.10;89.90;;;;;;4591355;19;20089;-28
2023/05/11 02:46:54;;;;;;;6.88;3.67;;;15.10;89.90;;;;;;4590690;19;20504;-26
2023/05/11 02:48:30;;;;;;;6.15;3.75;;;15.10;90.00;;;;;;4590919;19;20034;-25
2023/05/11 02:50:03;;;;;;;7.53;4.25;;;15.10;89.80;;;;;;4590848;19;20473;-29
2023/05/11 02:51:37;;;;;;;6.53;3.63;;;15.10;89.80;;;;;;4590804;19;20007;-26
2023/05/11 03:43:59;;;;;;;5.28;3.08;;;15.10;90.60;;;;;;4591389;19;20010;-30
2023/05/11 03:45:32;;;;;;;5.55;3.58;;;15.10;90.60;;;;;;4593081;19;20620;-30
2023/05/11 03:47:05;;;;;;;6.75;3.13;;;15.10;90.50;;;;;;4591168;19;20373;-28
2023/05/11 03:48:36;;;;;;;6.38;3.33;;;15.20;90.40;;;;;;4590788;19;20035;-26
2023/05/11 03:50:09;;;;;;;5.05;3.63;;;15.20;90.60;;;;;;4591020;19;20448;-27
2023/05/11 03:51:41;;;;;;;5.32;3.60;;;15.20;90.50;;;;;;4589942;19;20204;-24
2023/05/11 03:53:12;;;;;;;7.63;3.70;;;15.30;90.40;;;;;;4590483;19;20026;-25
2023/05/11 03:54:45;;;;;;;5.13;3.30;;;15.30;90.20;;;;;;4590264;19;20018;-25
2023/05/11 03:56:17;;;;;;;5.15;2.92;;;15.40;90.30;;;;;;4589883;19;20468;-25
2023/05/11 03:57:50;;;;;;;6.05;3.33;;;15.60;90.60;;;;;;4590279;19;20492;-28
2023/05/11 03:59:21;;;;;;;8.75;3.90;;;15.90;90.00;;;;;;4590542;19;20208;-28
2023/05/11 04:00:54;;;;;;;5.72;3.58;;;15.80;90.00;;;;;;4591043;19;20474;-25
2023/05/11 04:02:25;;;;;;;5.35;3.75;;;15.80;89.90;;;;;;4591705;19;20023;-25
2023/05/11 04:03:56;;;;;;;5.30;3.35;;;15.80;89.80;;;;;;4591149;19;20468;-25
2023/05/11 04:05:29;;;;;;;5.05;2.95;;;15.90;89.70;;;;;;4591372;19;20010;-25
2023/05/11 04:07:02;;;;;;;4.20;3.30;;;16.00;90.00;;;;;;4590294;19;20017;-25
2023/05/11 04:08:35;;;;;;;5.80;3.78;;;16.00;90.00;;;;;;4591086;19;20006;-27
2023/05/11 04:10:07;;;;;;;6.80;3.25;;;16.00;89.70;;;;;;4590943;19;20017;-26
2023/05/11 04:11:38;;;;;;;6.72;3.95;;;16.00;89.90;;;;;;4590912;19;20088;-25
2023/05/11 04:13:12;;;;;;;5.60;3.70;;;16.00;90.00;;;;;;4591263;19;20024;-26
2023/05/11 04:14:45;;;;;;;5.93;3.22;;;16.00;89.90;;;;;;4589259;19;20052;-26
2023/05/11 04:16:17;;;;;;;5.68;3.70;;;16.00;89.90;;;;;;4590787;19;20088;-26
2023/05/11 04:17:48;;;;;;;6.82;3.75;;;16.00;90.10;;;;;;4591173;19;20022;-25
2023/05/11 04:19:38;;;;;;;7.07;3.40;;;16.00;90.30;;;;;;4591338;19;20009;-25
2023/05/11 04:21:09;;;;;;;5.95;3.63;;;16.20;89.70;;;;;;4590997;19;20457;-28
2023/05/11 04:22:44;;;;;;;5.95;3.60;;;16.10;90.00;;;;;;4590897;19;20026;-25
2023/05/11 04:24:16;;;;;;;5.45;3.58;;;16.00;89.80;;;;;;4590767;19;20010;-25
2023/05/11 04:25:54;;;;;;;5.40;3.50;;;15.90;89.70;;;;;;4591586;19;20010;-26
2023/05/11 04:27:26;;;;;;;7.18;3.45;;;15.90;90.10;;;;;;4591660;19;20021;-29
2023/05/11 04:28:57;;;;;;;5.43;3.42;;;15.80;90.20;;;;;;4590808;19;20027;-24
2023/05/11 04:30:29;;;;;;;6.07;3.67;;;15.80;90.10;;;;;;4590916;19;20013;-25
2023/05/11 04:32:00;;;;;;;5.70;3.90;;;15.80;90.20;;;;;;4590277;19;20014;-28
2023/05/11 04:33:31;;;;;;;4.47;3.20;;;15.80;90.10;;;;;;4591393;19;20080;-25
2023/05/11 04:35:02;;;;;;;5.90;3.78;;;15.90;90.10;;;;;;4590711;19;20011;-26
2023/05/11 04:36:34;;;;;;;5.57;3.35;;;15.90;90.00;;;;;;4589719;19;20015;-28
2023/05/11 04:38:06;;;;;;;5.25;3.30;;;16.00;90.10;;;;;;4590557;19;20006;-23
2023/05/11 04:39:37;;;;;;;4.88;3.88;;;16.00;90.00;;;;;;4589649;19;20006;-27
2023/05/11 04:41:08;;;;;;;6.15;3.60;;;16.00;90.00;;;;;;4590396;19;20040;-29
2023/05/11 04:42:40;;;;;;;6.55;4.05;;;16.10;89.90;;;;;;4589709;19;20042;-24
2023/05/11 04:44:12;;;;;;;5.88;3.50;;;16.10;89.10;;;;;;4589352;19;20018;-25
2023/05/11 04:45:47;;;;;;;;;;;16.20;89.40;;;;;;4589889;19;20010;-23
2023/05/11 04:47:20;;;;;;;8.40;3.95;;;16.20;88.90;;;;;;4590051;19;19923;-24
2023/05/11 04:48:52;;;;;;;;;;;16.20;88.90;;;;;;4591664;19;20034;-27
2023/05/11 04:50:23;;;;;;;6.45;3.70;;;16.20;88.90;;;;;;4589199;19;20242;-27
2023/05/11 04:51:54;;;;;;;6.18;3.47;;;16.20;88.50;;;;;;4588666;19;20401;-24
2023/05/11 04:53:25;;;;;;;8.27;3.97;;;16.20;88.30;;;;;;4589783;19;20066;-24
2023/05/11 04:54:57;;;;;;;6.32;3.47;;;16.30;88.20;;;;;;4589491;19;20023;-25
2023/05/11 04:56:28;;;;;;;6.30;4.00;;;16.20;88.30;;;;;;4589638;19;20010;-23
2023/05/11 04:57:59;;;;;;;7.70;3.65;;;16.20;88.10;;;;;;4589145;19;20014;-24
2023/05/11 04:59:32;;;;;;;5.60;3.60;;;16.20;87.60;;;;;;4589492;19;20014;-23
2023/05/11 05:01:03;;;;;;;4.80;3.03;;;16.30;87.20;;;;;;4588986;19;20456;-24
2023/05/11 05:02:34;;;;;;;6.65;3.70;;;16.30;87.60;;;;;;4589948;19;20007;-28
2023/05/11 05:04:06;;;;;;;7.82;3.70;;;16.30;88.00;;;;;;4588819;19;20015;-24
2023/05/11 05:05:37;;;;;;;;;;;16.30;87.70;;;;;;4590579;19;20010;-24
2023/05/11 05:07:09;;;;;;;7.32;3.88;;;16.20;87.60;;;;;;4590422;19;19915;-24
2023/05/11 05:08:40;;;;;;;;;;;16.20;87.20;;;;;;4589997;19;20088;-24
2023/05/11 05:10:11;;;;;;;9.23;3.55;;;16.20;87.00;;;;;;4589569;19;19931;-24
2023/05/11 05:11:42;;;;;;;7.53;3.47;;;16.30;87.10;;;;;;4588642;19;20015;-30
2023/05/11 05:13:15;;;;;;;6.20;3.60;;;16.30;87.80;;;;;;4589583;19;20010;-24
2023/05/11 05:14:47;;;;;;;7.28;3.70;;;16.30;87.20;;;;;;4587547;19;20017;-25
2023/05/11 05:16:18;;;;;;;7.18;4.28;;;16.20;87.50;;;;;;4589611;19;20014;-23
2023/05/11 05:17:49;;;;;;;9.98;4.22;;;16.20;87.70;;;;;;4589327;19;20467;-31
2023/05/11 05:19:20;;;;;;;7.50;4.70;;;15.90;88.10;;;;;;4590267;19;20062;-24
2023/05/11 05:20:53;;;;;;;11.73;4.50;;;14.00;90.10;;;;;;4589820;19;20062;-23
2023/05/11 05:22:25;;;;;;;15.40;7.67;;;13.10;91.20;;;;;;4589902;19;20019;-23
2023/05/11 05:23:57;;;;;;;9.75;5.10;;;12.80;92.00;;;;;;4590027;19;20010;-25
2023/05/11 05:25:29;;;;;;;10.40;5.63;;;12.60;92.70;;;;;;4590662;19;20006;-23
2023/05/11 05:27:01;;;;;;;7.55;4.68;;;12.60;92.60;;;;;;4588684;19;20576;-27
2023/05/11 06:21:24;;;;;;;6.57;3.53;;;13.10;93.00;;;;;;4589628;19;20449;-23
2023/05/11 06:23:00;;;;;;;5.97;3.47;;;13.10;92.40;;;;;;4592506;19;20452;-23
2023/05/11 06:24:31;;;;;;;8.57;3.50;;;13.20;92.60;;;;;;4592689;19;20018;-28
2023/05/11 06:26:03;;;;;;;7.22;3.80;;;13.20;93.30;;;;;;4592331;19;20019;-24
2023/05/11 06:27:34;;;;;;;4.80;3.20;;;13.20;93.90;;;;;;4592140;19;20011;-26
2023/05/11 06:29:07;;;;;;;6.07;3.17;;;13.20;93.00;;;;;;4592735;19;20457;-22
2023/05/11 06:30:38;;;;;;;;;;;13.20;92.60;;;;;;4593219;19;20449;-23
2023/05/11 06:32:10;;;;;;;5.25;3.47;;;13.30;93.40;;;;;;4591459;19;19923;-23
2023/05/11 06:33:43;;;;;;;5.50;3.00;;;13.30;93.40;;;;;;4593478;19;20505;-23
2023/05/11 06:35:15;;;;;;;7.00;3.70;;;13.30;93.20;;;;;;4591569;19;20021;-24
2023/05/11 06:36:47;;;;;;;6.03;3.40;;;13.30;93.20;;;;;;4592264;19;20448;-22
2023/05/11 06:38:19;;;;;;;5.90;3.23;;;13.40;93.40;;;;;;4591592;19;20346;-26
2023/05/11 06:39:50;;;;;;;6.10;3.58;;;13.40;93.00;;;;;;4594086;19;20019;-24
2023/05/11 06:41:23;;;;;;;6.27;3.50;;;13.40;93.00;;;;;;4592641;19;20032;-23
2023/05/11 06:42:56;;;;;;;7.37;3.70;;;13.50;92.90;;;;;;4593052;19;20413;-28
2023/05/11 06:44:27;;;;;;;6.07;3.45;;;13.50;93.20;;;;;;4591458;19;20015;-29
2023/05/11 06:47:49;;;;;;;6.23;3.57;;;13.50;93.00;;;;;;4593036;19;19978;-24
2023/05/11 06:49:20;;;;;;;6.07;3.03;;;13.60;94.20;;;;;;4592783;19;20471;-26
2023/05/11 06:50:57;;;;;;;5.33;2.80;;;13.60;92.30;;;;;;4592354;19;20022;-23
2023/05/11 06:52:30;;;;;;;6.67;4.10;;;13.60;92.70;;;;;;4590449;19;20017;-26
2023/05/11 06:54:03;;;;;;;6.53;4.13;;;13.70;92.40;;;;;;4592044;19;20014;-23
2023/05/11 06:55:35;;;;;;;5.88;3.50;;;13.70;93.30;;;;;;4591893;19;20013;-22
2023/05/11 06:57:06;;;;;;;;;;;13.70;93.10;;;;;;4593498;19;20070;-23
2023/05/11 06:58:40;;;;;;;6.57;2.63;;;13.80;92.40;;;;;;4592642;19;19925;-28
2023/05/11 07:00:13;;;;;;;5.80;3.20;;;13.70;92.60;;;;;;4591139;19;20370;-22
2023/05/11 07:01:45;;;;;;;;;;;13.80;92.40;;;;;;4592404;19;20038;-23
2023/05/11 07:03:17;;;;;;;5.47;3.20;;;13.80;92.00;;;;;;4591757;19;19921;-23
2023/05/11 07:04:51;;;;;;;5.43;3.37;;;13.80;92.60;;;;;;4591483;19;20512;-26
2023/05/11 07:06:23;;;;;;;7.07;3.53;;;13.80;92.70;;;;;;4591544;19;20091;-27
2023/05/11 07:07:55;;;;;;;5.80;3.10;;;13.90;92.70;;;;;;4592066;19;20007;-23
2023/05/11 07:09:30;;;;;;;7.13;3.20;;;13.90;92.90;;;;;;4592308;19;20006;-24
2023/05/11 07:11:01;;;;;;;6.20;3.55;;;14.00;92.50;;;;;;4593816;19;20364;-24
2023/05/11 07:12:32;;;;;;;5.40;3.05;;;14.00;92.30;;;;;;4589281;19;20017;-28
2023/05/11 07:14:04;;;;;;;6.47;3.37;;;14.10;92.40;;;;;;4592356;19;20035;-30
2023/05/11 07:15:35;;;;;;;5.53;3.22;;;14.20;92.80;;;;;;4591702;19;20048;-23
2023/05/11 07:17:08;;;;;;;6.20;3.00;;;14.20;92.10;;;;;;4590220;19;20010;-23
2023/05/11 07:18:39;;;;;;;5.85;3.00;;;14.20;92.00;;;;;;4590016;19;20005;-28
2023/05/11 07:20:11;;;;;;;5.45;3.10;;;14.20;92.20;;;;;;4591993;19;20054;-26
2023/05/11 07:21:45;;;;;;;6.63;2.83;;;14.20;92.90;;;;;;4589452;19;20014;-23
2023/05/11 07:23:16;;;;;;;7.03;3.13;;;14.20;92.30;;;;;;4592068;19;20018;-29
2023/05/11 07:24:49;;;;;;;4.63;2.87;;;14.30;92.20;;;;;;4591793;19;20456;-28
2023/05/11 07:26:21;;;;;;;5.93;2.70;;;14.30;91.30;;;;;;4590939;19;20547;-22
2023/05/11 07:27:53;;;;;;;6.10;3.13;;;14.40;91.30;;;;;;4591259;19;20019;-23
2023/05/11 07:29:25;;;;;;;;;;;14.40;91.70;;;;;;4590907;19;20011;-23
2023/05/11 07:30:56;;;;;;;5.03;3.40;;;14.40;92.00;;;;;;4590630;19;19919;-23
2023/05/11 07:32:28;;;;;;;6.73;3.03;;;14.40;91.30;;;;;;4590509;19;20077;-24
2023/05/11 07:34:01;;;;;;;5.67;2.60;;;14.40;91.50;;;;;;4591695;19;20006;-23
2023/05/11 07:35:33;;;;;;;4.70;2.43;;;14.50;91.30;;;;;;4592051;19;20022;-29
2023/05/11 07:39:44;;;;;;;10.15;3.55;;;14.60;91.20;;;;;;4591248;19;20289;-24
2023/05/11 07:41:18;;;;;;;6.73;2.73;;;14.50;91.40;;;;;;4590992;19;20026;-23
2023/05/11 07:42:49;;;;;;;5.83;2.57;;;14.60;90.40;;;;;;4590230;19;20070;-24
2023/05/11 07:44:24;;;;;;;4.10;2.60;;;14.60;90.70;;;;;;4590313;19;20085;-23
2023/05/11 07:45:58;;;;;;;3.77;2.40;;;14.70;91.50;;;;;;4590102;19;20029;-24
2023/05/11 07:47:30;;;;;;;5.43;2.30;;;15.00;91.50;;;;;;4590448;19;20006;-23
2023/05/11 07:49:03;;;;;;;5.65;2.33;;;15.10;91.20;;;;;;4590265;19;20007;-23
2023/05/11 07:50:35;;;;;;;5.13;2.53;;;15.30;90.80;;;;;;4589977;19;20026;-26
2023/05/11 07:52:07;;;;;;;4.45;2.03;;;15.40;90.20;;;;;;4590046;19;20018;-23
2023/05/11 07:53:38;;;;;;;3.58;2.15;;;15.50;90.40;;;;;;4590493;19;20019;-29
2023/05/11 07:55:10;;;;;;;5.30;2.00;;;15.60;90.10;;;;;;4589838;19;20018;-25
2023/05/11 08:02:07;;;;;;;4.43;2.30;;;15.80;89.10;;;;;;4593665;19;19979;-23
2023/05/11 08:03:39;;;;;;;5.00;2.42;;;15.80;87.60;;;;;;4589519;19;20472;-23
2023/05/11 08:05:10;;;;;;;4.93;2.20;;;15.80;88.30;;;;;;4590704;19;20380;-25
2023/05/11 08:06:42;;;;;;;4.13;2.28;;;15.90;87.60;;;;;;4591336;19;20025;-25
2023/05/11 08:08:14;;;;;;;4.35;2.17;;;15.90;87.50;;;;;;4591021;19;20006;-27
2023/05/11 08:09:46;;;;;;;8.88;5.05;;;16.00;87.50;;;;;;4591037;19;20010;-23
2023/05/11 08:11:18;;;;;;;6.07;3.72;;;16.00;86.70;;;;;;4589542;19;20018;-23
2023/05/11 08:12:49;;;;;;;5.05;2.65;;;16.00;86.60;;;;;;4590845;19;20032;-24
2023/05/11 08:14:20;;;;;;;4.10;1.88;;;16.10;85.80;;;;;;4590807;19;20022;-26
2023/05/11 08:18:02;;;;;;;5.78;2.10;;;15.90;86.60;;;;;;4589822;19;20011;-25
2023/05/11 08:19:35;;;;;;;4.43;1.90;;;15.90;85.60;;;;;;4590625;19;20035;-27
2023/05/11 08:21:08;;;;;;;3.83;2.33;;;16.00;85.80;;;;;;4588869;19;20014;-22
2023/05/11 08:22:40;;;;;;;3.38;1.83;;;16.10;85.50;;;;;;4591083;19;20006;-23
2023/05/11 08:24:12;;;;;;;;;;;16.10;85.80;;;;;;4590472;19;20356;-21
2023/05/11 08:26:01;;;;;;;4.95;1.67;;;16.30;85.60;;;;;;4590283;19;19922;-23
2023/05/11 08:27:32;;;;;;;8.02;2.10;;;16.30;84.90;;;;;;4590864;19;20025;-27
2023/05/11 08:29:04;;;;;;;;;;;16.20;84.50;;;;;;4592100;19;20003;-27
2023/05/11 08:30:36;;;;;;;2.70;1.63;;;16.20;84.20;;;;;;4590591;19;19919;-29
2023/05/11 08:32:09;;;;;;;4.20;2.05;;;16.20;84.90;;;;;;4589722;19;20348;-26
2023/05/11 08:33:42;;;;;;;4.70;1.98;;;16.20;83.90;;;;;;4590702;19;20086;-23
2023/05/11 08:35:13;;;;;;;5.32;2.20;;;16.20;82.80;;;;;;4591662;19;20002;-23
2023/05/11 08:36:44;;;;;;;4.95;2.22;;;16.10;81.00;;;;;;4590456;19;20014;-28
2023/05/11 08:38:18;;;;;;;4.63;2.72;;;16.00;81.40;;;;;;4589409;19;20476;-24
2023/05/11 08:39:50;;;;;;;6.38;3.40;;;16.30;80.40;;;;;;4590853;19;20377;-23
2023/05/11 08:41:23;;;;;;;5.65;3.10;;;16.30;80.60;;;;;;4588237;19;20471;-24
2023/05/11 08:42:56;;;;;;;4.55;2.70;;;16.20;81.60;;;;;;4590282;19;20082;-23
2023/05/11 08:44:30;;;;;;;5.25;2.85;;;16.30;81.50;;;;;;4589632;19;20010;-23
2023/05/11 08:46:03;;;;;;;5.88;3.17;;;16.30;81.10;;;;;;4587689;19;20078;-26
2023/05/11 08:47:35;;;;;;;4.57;2.15;;;16.20;80.90;;;;;;4587732;19;20043;-27
2023/05/11 08:49:09;;;;;;;3.10;1.90;;;16.20;80.60;;;;;;4587788;19;20010;-24
2023/05/11 08:50:40;;;;;;;4.40;2.17;;;16.20;79.40;;;;;;4587565;19;20018;-24
2023/05/11 08:52:12;;;;;;;3.85;2.22;;;16.10;80.60;;;;;;4586678;19;20023;-29
2023/05/11 08:53:45;;;;;;;7.00;5.25;;;16.20;79.80;;;;;;4587869;19;20014;-23
2023/05/11 08:55:17;;;;;;;5.82;5.22;;;16.00;80.50;;;;;;4587577;19;20499;-23
2023/05/11 08:56:50;;;;;;;;;;;16.00;79.40;;;;;;4588417;19;20026;-23
2023/05/11 08:58:22;;;;;;;11.13;9.63;;;16.10;79.00;;;;;;4588593;19;19943;-27
2023/05/11 08:59:55;;;;;;;12.90;10.80;;;16.20;79.90;;;;;;4588033;19;20053;-27
2023/05/11 09:01:29;;;;;;;;;;;16.10;79.90;;;;;;4587790;19;20040;-23
2023/05/11 09:03:01;;;;;;;5.22;4.05;;;16.00;79.60;;;;;;4587762;19;19927;-24
2023/05/11 09:04:32;;;;;;;5.88;4.70;;;16.10;79.20;;;;;;4587800;19;20127;-24
2023/05/11 09:06:06;;;;;;;12.18;5.00;;;16.10;78.70;;;;;;4586773;19;20014;-23
2023/05/11 09:07:37;;;;;;;7.25;4.43;;;16.10;78.30;;;;;;4587306;19;20026;-23
2023/05/11 09:09:10;;;;;;;7.05;3.35;;;16.10;78.70;;;;;;4588063;19;20049;-23
2023/05/11 09:10:43;;;;;;;5.57;4.10;;;16.20;77.60;;;;;;4588367;19;20014;-23
2023/05/11 09:12:17;;;;;;;4.63;3.70;;;16.10;79.10;;;;;;4587040;19;20031;-24
2023/05/11 09:13:48;;;;;;;3.83;2.80;;;16.20;77.90;;;;;;4588062;19;20011;-29
2023/05/11 09:15:20;;;;;;;;;;;16.20;78.30;;;;;;4587123;19;20015;-25
2023/05/11 09:16:51;;;;;;;4.95;3.05;;;16.30;78.90;;;;;;4587925;19;19919;-24
2023/05/11 09:18:25;;;;;;;5.80;4.35;;;16.40;79.30;;;;;;4588402;19;20014;-23
2023/05/11 09:20:08;;;;;;;4.85;3.35;;;16.40;79.70;;;;;;4589541;19;20476;-28
2023/05/11 09:21:41;;;;;;;6.25;3.20;;;16.30;79.90;;;;;;4587104;19;20019;-23
2023/05/11 09:23:16;;;;;;;6.75;5.10;;;16.30;78.70;;;;;;4588528;19;20036;-24
2023/05/11 09:24:48;;;;;;;5.78;4.07;;;16.30;78.50;;;;;;4588369;19;20015;-23
2023/05/11 09:26:19;;;;;;;3.90;2.50;;;16.50;78.80;;;;;;4587855;19;20381;-25
2023/05/11 09:27:51;;;;;;;9.20;6.72;;;16.50;78.40;;;;;;4588972;19;20446;-30
2023/05/11 09:29:24;;;;;;;7.25;5.07;;;16.30;80.00;;;;;;4589747;19;20019;-23
2023/05/11 09:30:57;;;;;;;5.35;3.78;;;16.40;79.80;;;;;;4589417;19;20048;-24
2023/05/11 09:32:32;;;;;;;7.72;4.38;;;16.50;80.30;;;;;;4587325;19;20015;-23
2023/05/11 09:34:13;;;;;;;4.80;3.00;;;16.40;80.20;;;;;;4588602;19;20069;-27
2023/05/11 09:35:45;;;;;;;3.17;2.10;;;16.30;80.80;;;;;;4588703;19;20022;-27
2023/05/11 09:37:17;;;;;;;3.75;2.28;;;16.40;81.90;;;;;;4589159;19;20031;-26
2023/05/11 09:38:49;;;;;;;4.38;3.03;;;16.50;79.60;;;;;;4588406;19;20014;-25
2023/05/11 09:40:21;;;;;;;4.45;3.00;;;16.50;81.20;;;;;;4587352;19;20044;-23
2023/05/11 09:42:16;;;;;;;4.65;2.72;;;16.60;80.70;;;;;;4588250;19;20085;-23
2023/05/11 09:43:53;;;;;;;3.22;2.00;;;16.60;80.80;;;;;;4589457;19;19999;-28
2023/05/11 09:45:35;;;;;;;4.50;2.60;;;16.50;80.50;;;;;;4589225;19;20337;-28
2023/05/11 09:47:12;;;;;;;4.00;1.98;;;16.40;78.50;;;;;;4588169;19;20017;-23
2023/05/11 09:48:44;;;;;;;2.47;1.42;;;16.40;77.60;;;;;;4587972;19;20049;-27
2023/05/11 09:50:16;;;;;;;3.80;1.98;;;16.40;81.10;;;;;;4588964;19;20028;-29
2023/05/11 09:51:47;;;;;;;4.28;2.13;;;16.50;77.80;;;;;;4589040;19;20010;-24
2023/05/11 09:53:19;;;;;;;4.18;2.28;;;16.50;77.70;;;;;;4588916;19;20082;-24
2023/05/11 09:54:51;;;;;;;3.97;1.85;;;16.40;77.10;;;;;;4594322;19;20015;-23
2023/05/11 09:56:22;;;;;;;6.18;2.15;;;16.50;78.20;;;;;;4593024;19;20006;-25
2023/05/11 09:57:55;;;;;;;;;;;16.60;78.80;;;;;;4593799;19;20536;-24
2023/05/11 09:59:37;;;;;;;4.20;2.35;;;16.70;77.10;;;;;;4592450;19;19918;-23
2023/05/11 10:01:09;;;;;;;2.63;1.90;;;16.80;79.00;;;;;;4592329;19;20002;-22
2023/05/11 10:02:41;;;;;;;3.80;1.85;;;16.80;77.30;;;;;;4591921;19;20022;-25
2023/05/11 10:04:13;;;;;;;4.18;2.38;;;16.80;77.40;;;;;;4591728;19;20010;-23